Time;durP1;ratioP1;P1;durP2;ratioP2;P2;SDS_P1;SDS_P2;PMS_P1;PMS_P2;Temp;Humidity;BMP_temperature;BMP_pressure;BME280_temperature;BME280_humidity;BME280_pressure;Samples;Min_cycle;Max_cycle;Signal;HPM_P1;HPM_P2
2021/10/28 00:12:19;;;;;;;;;;;;;;;6.81;86.22;97448.44;30001;983;1880;-60
2021/10/28 00:13:03;;;;;;;;;;;;;;;6.81;86.14;97443.03;30001;983;1876;-61
2021/10/28 00:13:36;;;;;;;;;;;;;;;6.80;85.73;97442.22;30001;983;1880;-60
2021/10/28 00:14:07;;;;;;;;;;;;;;;6.79;85.86;97445.19;30001;983;1876;-60
2021/10/28 00:14:40;;;;;;;;;;;;;;;6.77;85.95;97441.91;30001;983;1881;-60
2021/10/28 00:15:22;;;;;;;;;;;;;;;6.76;86.09;97445.69;30001;983;1863;-60
2021/10/28 00:15:56;;;;;;;;;;;;;;;6.70;85.88;97445.63;30001;983;1872;-59
2021/10/28 00:16:33;;;;;;;;;;;;;;;6.68;85.81;97445.06;30001;982;1876;-60
2021/10/28 00:17:10;;;;;;;;;;;;;;;6.62;86.08;97445.25;30001;982;1881;-58
2021/10/28 00:18:55;;;;;;;;;;;;;;;6.56;86.51;97436.34;30001;983;1880;-60
2021/10/28 00:19:27;;;;;;;;;;;;;;;6.55;86.41;97434.69;30001;983;1876;-60
2021/10/28 00:19:58;;;;;;;;;;;;;;;6.54;86.76;97437.66;30001;983;1880;-59
2021/10/28 00:20:31;;;;;;;;;;;;;;;6.53;86.68;97444.09;30001;983;1863;-57
2021/10/28 00:21:03;;;;;;;;;;;;;;;6.52;86.72;97443.28;30002;983;1858;-58
2021/10/28 00:21:37;;;;;;;;;;;;;;;6.51;86.75;97438.97;30002;983;1876;-61
2021/10/28 00:22:10;;;;;;;;;;;;;;;6.52;86.91;97443.28;30002;983;1881;-59
2021/10/28 00:22:42;;;;;;;;;;;;;;;6.51;86.94;97438.97;30002;983;1876;-61
2021/10/28 00:23:12;;;;;;;;;;;;;;;6.50;86.91;97441.91;30002;982;1881;-60
2021/10/28 00:23:46;;;;;;;;;;;;;;;6.48;86.71;97439.47;30002;982;1876;-60
2021/10/28 00:24:17;;;;;;;;;;;;;;;6.47;87.16;97432.44;30002;982;1868;-60
2021/10/28 00:24:48;;;;;;;;;;;;;;;6.46;86.87;97441.59;30002;982;1868;-59
2021/10/28 00:25:19;;;;;;;;;;;;;;;6.45;87.04;97434.59;30002;982;1881;-60
2021/10/28 00:25:50;;;;;;;;;;;;;;;6.43;87.03;97434.03;30002;982;1877;-59
2021/10/28 00:26:21;;;;;;;;;;;;;;;6.43;87.02;97434.03;30002;983;1880;-60
2021/10/28 00:26:52;;;;;;;;;;;;;;;6.44;86.93;97435.66;30002;983;1876;-59
2021/10/28 00:27:23;;;;;;;;;;;;;;;6.44;87.05;97432.94;30002;983;1880;-61
2021/10/28 00:27:54;;;;;;;;;;;;;;;6.44;86.98;97441.03;30002;983;1876;-61
2021/10/28 00:28:25;;;;;;;;;;;;;;;6.43;87.04;97431.31;30002;983;1880;-60
2021/10/28 00:28:59;;;;;;;;;;;;;;;6.42;87.15;97435.09;30002;983;1876;-60
2021/10/28 00:29:31;;;;;;;;;;;;;;;6.42;87.21;97435.09;30002;983;1867;-58
2021/10/28 00:30:02;;;;;;;;;;;;;;;6.41;87.07;97428.06;30002;983;1867;-59
2021/10/28 00:30:33;;;;;;;;;;;;;;;6.38;86.90;97434.78;30002;982;1881;-60
2021/10/28 00:31:05;;;;;;;;;;;;;;;6.37;87.16;97432.34;30002;982;1876;-60
2021/10/28 00:31:37;;;;;;;;;;;;;;;6.35;86.90;97431.78;30002;982;1881;-60
2021/10/28 00:32:08;;;;;;;;;;;;;;;6.34;87.12;97427.44;30002;982;1877;-60
2021/10/28 00:32:39;;;;;;;;;;;;;;;6.35;87.27;97423.69;30002;982;1881;-60
2021/10/28 00:33:10;;;;;;;;;;;;;;;6.34;87.05;97427.44;30002;982;1877;-61
2021/10/28 00:33:44;;;;;;;;;;;;;;;6.33;86.96;97433.91;30002;983;1867;-60
2021/10/28 00:34:16;;;;;;;;;;;;;;;6.33;87.14;97425.81;30002;983;1867;-59
2021/10/28 00:34:47;;;;;;;;;;;;;;;6.33;87.08;97426.63;30002;983;1880;-60
2021/10/28 00:35:17;;;;;;;;;;;;;;;6.33;86.87;97425.81;30002;983;1876;-59
2021/10/28 00:35:48;;;;;;;;;;;;;;;6.34;86.79;97427.44;30002;983;1880;-59
2021/10/28 00:36:19;;;;;;;;;;;;;;;6.32;86.87;97425.00;30002;983;1876;-60
2021/10/28 00:36:50;;;;;;;;;;;;;;;6.31;86.98;97425.25;30002;983;1880;-59
2021/10/28 00:37:21;;;;;;;;;;;;;;;6.30;87.05;97429.00;30002;983;1863;-59
2021/10/28 00:37:52;;;;;;;;;;;;;;;6.28;87.01;97428.44;30002;982;1872;-59
2021/10/28 00:38:23;;;;;;;;;;;;;;;6.26;86.84;97425.19;30002;982;1876;-59
2021/10/28 00:38:54;;;;;;;;;;;;;;;6.26;87.14;97422.50;30002;982;1881;-61
2021/10/28 00:39:25;;;;;;;;;;;;;;;6.24;86.78;97422.75;30002;982;1877;-60
2021/10/28 00:39:56;;;;;;;;;;;;;;;6.23;86.93;97425.72;30002;982;1881;-59
2021/10/28 00:40:27;;;;;;;;;;;;;;;6.22;86.92;97424.09;30002;982;1877;-60
2021/10/28 00:40:58;;;;;;;;;;;;;;;6.22;87.10;97429.47;30002;982;1881;-60
2021/10/28 00:41:29;;;;;;;;;;;;;;;6.21;87.04;97422.47;30002;983;1876;-60
2021/10/28 00:42:00;;;;;;;;;;;;;;;6.20;86.72;97426.22;30002;983;1867;-61
2021/10/28 00:42:31;;;;;;;;;;;;;;;6.16;87.04;97425.09;30002;983;1867;-60
2021/10/28 00:43:02;;;;;;;;;;;;;;;6.15;87.14;97418.88;30002;983;1880;-59
2021/10/28 00:43:34;;;;;;;;;;;;;;;6.14;87.18;97427.22;30002;983;1876;-59
2021/10/28 00:44:06;;;;;;;;;;;;;;;6.11;87.39;97425.03;30002;983;1880;-59
2021/10/28 00:44:36;;;;;;;;;;;;;;;6.10;87.21;97426.09;30002;983;1876;-60
2021/10/28 00:45:09;;;;;;;;;;;;;;;6.09;87.46;97430.66;30002;983;1881;-59
2021/10/28 00:45:40;;;;;;;;;;;;;;;6.09;87.17;97433.34;30002;982;1863;-59
2021/10/28 00:46:12;;;;;;;;;;;;;;;6.12;87.44;97423.97;30002;982;1872;-60
2021/10/28 00:46:44;;;;;;;;;;;;;;;6.13;87.16;97433.66;30002;982;1876;-61
2021/10/28 00:47:15;;;;;;;;;;;;;;;6.15;87.05;97423.47;30002;982;1868;-59
2021/10/28 00:47:45;;;;;;;;;;;;;;;6.16;87.00;97430.47;30002;986;1868;-59
2021/10/28 00:48:16;;;;;;;;;;;;;;;6.15;87.15;97432.34;30002;982;1881;-58
2021/10/28 00:48:48;;;;;;;;;;;;;;;6.15;86.91;97431.53;30002;983;1876;-61
2021/10/28 00:49:19;;;;;;;;;;;;;;;6.14;87.01;97427.22;30002;983;1880;-61
2021/10/28 00:49:49;;;;;;;;;;;;;;;6.14;86.93;97432.59;30002;983;1876;-60
2021/10/28 00:50:20;;;;;;;;;;;;;;;6.16;87.18;97428.59;30002;983;1880;-59
2021/10/28 00:50:53;;;;;;;;;;;;;;;6.16;86.79;97420.50;30002;983;1876;-60
2021/10/28 00:51:25;;;;;;;;;;;;;;;6.17;86.76;97426.72;30002;983;1867;-61
2021/10/28 00:51:56;;;;;;;;;;;;;;;6.17;86.71;97426.72;30002;983;1867;-61
2021/10/28 00:52:27;;;;;;;;;;;;;;;6.16;86.86;97428.59;30002;983;1881;-59
2021/10/28 00:52:59;;;;;;;;;;;;;;;6.15;86.90;97418.06;30002;982;1876;-60
2021/10/28 00:53:31;;;;;;;;;;;;;;;6.12;86.73;97423.97;30002;982;1881;-59
2021/10/28 00:54:04;;;;;;;;;;;;;;;6.10;86.87;97431.47;30002;982;1876;-60
2021/10/28 00:54:35;;;;;;;;;;;;;;;6.11;86.99;97422.34;30002;982;1881;-59
2021/10/28 00:55:08;;;;;;;;;;;;;;;6.10;86.67;97426.09;30002;982;1876;-61
2021/10/28 00:55:39;;;;;;;;;;;;;;;6.09;86.71;97424.47;30002;983;1880;-62
2021/10/28 00:56:12;;;;;;;;;;;;;;;6.08;86.81;97420.13;30002;983;1876;-61
2021/10/28 00:56:44;;;;;;;;;;;;;;;6.04;86.89;97422.50;30002;983;1867;-60
2021/10/28 00:57:15;;;;;;;;;;;;;;;6.02;86.91;97420.06;30002;983;1854;-59
2021/10/28 00:57:47;;;;;;;;;;;;;;;6.01;86.91;97418.44;30002;983;1880;-60
2021/10/28 00:58:22;;;;;;;;;;;;;;;6.03;86.79;97421.69;30002;983;1876;-61
2021/10/28 00:58:53;;;;;;;;;;;;;;;6.01;86.88;97423.81;30002;983;1880;-60
2021/10/28 00:59:25;;;;;;;;;;;;;;;6.00;86.76;97424.87;30002;983;1876;-61
2021/10/28 00:59:55;;;;;;;;;;;;;;;6.01;86.59;97423.81;30002;983;1867;-60
2021/10/28 01:00:26;;;;;;;;;;;;;;;5.99;86.56;97425.13;30002;983;1867;-61
2021/10/28 01:00:59;;;;;;;;;;;;;;;5.97;86.64;97422.69;30002;982;1881;-60
2021/10/28 01:01:30;;;;;;;;;;;;;;;5.94;86.87;97417.81;30002;982;1876;-60
2021/10/28 01:02:02;;;;;;;;;;;;;;;5.93;86.98;97421.56;30002;982;1881;-60
2021/10/28 01:02:33;;;;;;;;;;;;;;;5.95;86.98;97424.81;30002;982;1877;-60
2021/10/28 01:03:05;;;;;;;;;;;;;;;5.93;87.11;97426.94;30002;983;1880;-61
2021/10/28 01:03:37;;;;;;;;;;;;;;;5.90;86.57;97427.44;30002;983;1876;-61
2021/10/28 01:04:09;;;;;;;;;;;;;;;5.88;86.77;97426.88;30002;983;1880;-59
2021/10/28 01:04:41;;;;;;;;;;;;;;;5.89;86.94;97425.81;30002;983;1863;-59
2021/10/28 01:05:13;;;;;;;;;;;;;;;5.90;87.20;97424.75;30002;983;1872;-61
2021/10/28 01:05:44;;;;;;;;;;;;;;;5.92;87.18;97419.94;30002;983;1876;-60
2021/10/28 01:06:15;;;;;;;;;;;;;;;5.91;86.99;97412.91;30002;983;1880;-61
2021/10/28 01:06:47;;;;;;;;;;;;;;;5.91;86.71;97418.31;30002;983;1876;-59
2021/10/28 01:07:18;;;;;;;;;;;;;;;5.89;86.83;97420.44;30002;983;1880;-61
2021/10/28 01:07:49;;;;;;;;;;;;;;;5.88;86.71;97420.69;30002;983;1876;-61
2021/10/28 01:08:20;;;;;;;;;;;;;;;5.84;86.92;97423.06;30002;982;1881;-61
2021/10/28 01:08:51;;;;;;;;;;;;;;;5.83;86.80;97418.72;30002;982;1877;-60
2021/10/28 01:09:23;;;;;;;;;;;;;;;5.82;87.12;97425.19;30002;982;1881;-60
2021/10/28 01:09:54;;;;;;;;;;;;;;;5.82;86.99;97419.78;30002;982;1863;-57
2021/10/28 01:10:25;;;;;;;;;;;;;;;5.83;86.73;97418.72;30002;982;1872;-62
2021/10/28 01:10:56;;;;;;;;;;;;;;;5.84;86.88;97419.53;30002;983;1876;-60
2021/10/28 01:11:28;;;;;;;;;;;;;;;5.85;87.04;97419.31;30002;983;1880;-59
2021/10/28 01:11:59;;;;;;;;;;;;;;;5.84;86.66;97422.25;30002;983;1876;-61
2021/10/28 01:12:30;;;;;;;;;;;;;;;5.84;86.73;97416.84;30001;983;1880;-60
2021/10/28 01:13:01;;;;;;;;;;;;;;;5.84;86.94;97420.34;30001;983;1876;-61
2021/10/28 01:13:32;;;;;;;;;;;;;;;5.84;86.79;97417.66;30001;983;1880;-60
2021/10/28 01:14:03;;;;;;;;;;;;;;;5.87;86.57;97416.34;30001;983;1876;-60
2021/10/28 01:14:44;;;;;;;;;;;;;;;5.83;86.74;97416.03;30001;983;1880;-60
2021/10/28 01:15:16;;;;;;;;;;;;;;;5.80;86.57;97421.91;30001;983;1863;-59
2021/10/28 01:15:52;;;;;;;;;;;;;;;5.82;86.81;97419.78;30001;982;1872;-61
2021/10/28 01:16:23;;;;;;;;;;;;;;;5.80;86.66;97421.91;30001;982;1876;-62
2021/10/28 01:16:54;;;;;;;;;;;;;;;5.79;86.88;97422.16;30001;982;1881;-61
2021/10/28 01:17:29;;;;;;;;;;;;;;;5.79;86.81;97424.84;30001;982;1877;-59
2021/10/28 01:18:00;;;;;;;;;;;;;;;5.79;86.85;97416.78;30001;982;1881;-60
2021/10/28 01:18:32;;;;;;;;;;;;;;;5.79;86.74;97422.97;30001;983;1876;-62
2021/10/28 01:19:03;;;;;;;;;;;;;;;5.76;86.79;97423.47;30001;983;1880;-60
2021/10/28 01:19:35;;;;;;;;;;;;;;;5.76;86.95;97420.78;30001;983;1863;-59
2021/10/28 01:20:07;;;;;;;;;;;;;;;5.80;nan;97421.09;30001;983;1858;-60
2021/10/28 01:20:39;;;;;;;;;;;;;;;5.81;86.67;97418.16;30001;983;1876;-60
2021/10/28 01:21:10;;;;;;;;;;;;;;;5.81;86.63;97420.84;30001;983;1881;-61
2021/10/28 01:21:41;;;;;;;;;;;;;;;5.79;86.88;97414.91;30001;983;1876;-61
2021/10/28 01:22:13;;;;;;;;;;;;;;;5.77;86.89;97406.25;30001;983;1881;-62
2021/10/28 01:22:44;;;;;;;;;;;;;;;5.74;86.75;97412.13;30001;983;1876;-61
2021/10/28 01:23:16;;;;;;;;;;;;;;;5.73;86.77;97411.31;30001;982;1881;-61
2021/10/28 01:23:47;;;;;;;;;;;;;;;5.69;86.89;97404.81;30001;982;1876;-60
2021/10/28 01:24:18;;;;;;;;;;;;;;;5.68;86.75;97407.75;30001;982;1881;-60
2021/10/28 01:24:49;;;;;;;;;;;;;;;5.65;87.09;97410.94;30001;982;1864;-61
2021/10/28 01:25:20;;;;;;;;;;;;;;;5.62;86.91;97406.03;30001;982;1872;-61
2021/10/28 01:25:52;;;;;;;;;;;;;;;5.57;87.06;97411.34;30001;983;1876;-61
2021/10/28 01:26:23;;;;;;;;;;;;;;;5.53;87.20;97411.06;30001;983;1880;-61
2021/10/28 01:27:01;;;;;;;;;;;;;;;5.50;87.33;97411.56;30001;983;1876;-61
2021/10/28 01:27:37;;;;;;;;;;;;;;;5.48;87.54;97407.47;30001;983;1867;-60
2021/10/28 01:28:12;;;;;;;;;;;;;;;5.46;87.92;97413.09;30001;983;1868;-61
2021/10/28 01:28:52;;;;;;;;;;;;;;;5.45;87.72;97402.59;30001;983;1881;-61
2021/10/28 01:29:22;;;;;;;;;;;;;;;5.42;88.20;97405.78;30001;983;1877;-61
2021/10/28 01:29:53;;;;;;;;;;;;;;;5.41;88.12;97406.81;30001;982;1881;-62
2021/10/28 01:30:24;;;;;;;;;;;;;;;5.40;88.49;97406.00;30001;982;1863;-61
2021/10/28 01:30:56;;;;;;;;;;;;;;;5.38;88.28;97411.66;30001;982;1872;-60
2021/10/28 01:31:30;;;;;;;;;;;;;;;5.38;88.30;97411.66;30001;982;1876;-59
2021/10/28 01:32:01;;;;;;;;;;;;;;;5.36;88.57;97400.31;30001;982;1881;-61
2021/10/28 01:32:32;;;;;;;;;;;;;;;5.35;88.53;97404.06;30001;982;1877;-60
2021/10/28 01:33:03;;;;;;;;;;;;;;;5.34;88.25;97405.12;30001;982;1881;-60
2021/10/28 01:33:34;;;;;;;;;;;;;;;5.34;88.55;97412.38;30001;983;1876;-60
2021/10/28 01:34:05;;;;;;;;;;;;;;;5.34;88.50;97415.88;30001;983;1880;-61
2021/10/28 01:34:41;;;;;;;;;;;;;;;5.33;88.51;97411.56;30001;983;1876;-61
2021/10/28 01:35:12;;;;;;;;;;;;;;;5.33;88.69;97406.19;30001;983;1880;-60
2021/10/28 01:35:43;;;;;;;;;;;;;;;5.33;88.76;97411.56;30001;983;1863;-61
2021/10/28 01:36:17;;;;;;;;;;;;;;;5.32;88.83;97412.63;30001;983;1872;-61
2021/10/28 01:36:48;;;;;;;;;;;;;;;5.31;88.88;97399.41;30001;983;1876;-61
2021/10/28 01:37:18;;;;;;;;;;;;;;;5.33;88.75;97410.75;30001;983;1881;-61
2021/10/28 01:37:50;;;;;;;;;;;;;;;5.35;88.87;97408.63;30001;982;1876;-61
2021/10/28 01:38:22;;;;;;;;;;;;;;;5.37;88.79;97412.69;30001;982;1881;-61
2021/10/28 01:38:54;;;;;;;;;;;;;;;5.36;88.66;97411.06;30001;982;1863;-60
2021/10/28 01:39:25;;;;;;;;;;;;;;;5.34;88.48;97405.12;30001;982;1872;-61
2021/10/28 01:39:55;;;;;;;;;;;;;;;5.34;88.64;97401.63;30001;982;1877;-59
2021/10/28 01:40:26;;;;;;;;;;;;;;;5.32;88.68;97403.75;30001;982;1868;-60
2021/10/28 01:41:00;;;;;;;;;;;;;;;5.33;88.50;97400.81;30002;983;1759;-60
2021/10/28 01:41:32;;;;;;;;;;;;;;;5.33;88.51;97411.56;30001;983;1880;-61
2021/10/28 01:42:05;;;;;;;;;;;;;;;5.33;88.53;97400.81;30001;983;1876;-60
2021/10/28 01:42:40;;;;;;;;;;;;;;;5.34;88.46;97407.81;30001;983;1880;-60
2021/10/28 01:43:11;;;;;;;;;;;;;;;5.35;88.89;97404.06;30001;983;1876;-61
2021/10/28 01:43:42;;;;;;;;;;;;;;;5.39;88.73;97415.97;30001;983;1880;-60
2021/10/28 01:44:13;;;;;;;;;;;;;;;5.36;88.33;97399.50;30001;983;1876;-60
2021/10/28 01:44:44;;;;;;;;;;;;;;;5.34;88.64;97407.81;30001;983;1881;-62
2021/10/28 01:45:15;;;;;;;;;;;;;;;5.35;88.53;97397.88;30001;982;1876;-61
2021/10/28 01:45:46;;;;;;;;;;;;;;;5.36;88.94;97405.69;30001;982;1868;-61
2021/10/28 01:46:17;;;;;;;;;;;;;;;5.34;88.43;97402.44;30001;982;1868;-61
2021/10/28 01:46:48;;;;;;;;;;;;;;;5.33;88.53;97395.41;30001;982;1868;-60
2021/10/28 01:47:19;;;;;;;;;;;;;;;5.38;88.56;97398.19;30001;982;1868;-61
2021/10/28 01:47:49;;;;;;;;;;;;;;;5.36;88.39;97396.81;30001;982;1881;-61
2021/10/28 01:48:22;;;;;;;;;;;;;;;5.35;88.53;97401.37;30001;983;1876;-60
2021/10/28 01:48:53;;;;;;;;;;;;;;;5.33;88.52;97406.19;30001;983;1880;-60
2021/10/28 01:49:24;;;;;;;;;;;;;;;5.27;88.66;97401.78;30001;983;1876;-59
2021/10/28 01:49:55;;;;;;;;;;;;;;;5.26;88.63;97402.84;30001;983;1867;-60
2021/10/28 01:50:28;;;;;;;;;;;;;;;5.24;89.02;97396.88;30001;983;1854;-60
2021/10/28 01:50:59;;;;;;;;;;;;;;;5.21;88.95;97397.38;30001;983;1880;-60
2021/10/28 01:51:30;;;;;;;;;;;;;;;5.20;89.16;97401.13;30001;983;1876;-61
2021/10/28 01:52:01;;;;;;;;;;;;;;;5.19;88.92;97410.28;30001;983;1881;-60
2021/10/28 01:52:32;;;;;;;;;;;;;;;5.18;88.98;97402.47;30001;982;1876;-61
2021/10/28 01:53:03;;;;;;;;;;;;;;;5.17;89.13;97401.66;30001;982;1881;-61
2021/10/28 01:53:37;;;;;;;;;;;;;;;5.17;89.62;97401.66;30001;982;1876;-60
2021/10/28 01:54:08;;;;;;;;;;;;;;;5.18;89.32;97402.47;30001;982;1881;-60
2021/10/28 01:54:39;;;;;;;;;;;;;;;5.15;89.44;97398.38;30001;982;1877;-59
2021/10/28 01:55:13;;;;;;;;;;;;;;;5.13;89.45;97405.06;30001;982;1881;-61
2021/10/28 01:55:45;;;;;;;;;;;;;;;5.11;89.76;97402.63;30001;982;1863;-61
2021/10/28 01:56:16;;;;;;;;;;;;;;;5.11;89.75;97405.31;30001;983;1871;-61
2021/10/28 01:56:48;;;;;;;;;;;;;;;5.14;90.06;97401.31;30001;983;1876;-61
2021/10/28 01:57:21;;;;;;;;;;;;;;;5.16;89.98;97404.59;30001;983;1880;-61
2021/10/28 01:57:52;;;;;;;;;;;;;;;5.15;89.69;97395.69;30001;983;1876;-60
2021/10/28 01:58:23;;;;;;;;;;;;;;;5.16;89.69;97404.59;30001;983;1880;-61
2021/10/28 01:58:55;;;;;;;;;;;;;;;5.15;89.94;97403.78;30001;983;1863;-60
2021/10/28 01:59:26;;;;;;;;;;;;;;;5.16;89.83;97407.28;30001;983;1872;-61
2021/10/28 01:59:56;;;;;;;;;;;;;;;5.15;89.76;97401.09;30001;983;1876;-61
2021/10/28 02:00:27;;;;;;;;;;;;;;;5.15;89.76;97408.34;30001;982;1868;-61
2021/10/28 02:00:59;;;;;;;;;;;;;;;5.14;89.82;97407.53;30001;982;1868;-61
2021/10/28 02:01:30;;;;;;;;;;;;;;;5.14;89.85;97407.53;30001;982;1881;-61
2021/10/28 02:02:01;;;;;;;;;;;;;;;5.12;89.91;97409.63;30001;982;1877;-61
2021/10/28 02:02:32;;;;;;;;;;;;;;;5.14;90.03;97412.09;30001;982;1881;-61
2021/10/28 02:03:03;;;;;;;;;;;;;;;5.15;90.15;97402.97;30001;983;1863;-62
2021/10/28 02:03:34;;;;;;;;;;;;;;;5.16;90.18;97408.09;30001;983;1871;-61
2021/10/28 02:04:05;;;;;;;;;;;;;;;5.18;90.15;97403.28;30001;983;1876;-59
2021/10/28 02:04:36;;;;;;;;;;;;;;;5.21;89.88;97399.25;30001;983;1880;-61
2021/10/28 02:05:07;;;;;;;;;;;;;;;5.21;89.74;97408.13;30001;983;1876;-60
2021/10/28 02:05:38;;;;;;;;;;;;;;;5.22;89.66;97403.56;30001;983;1867;-60
2021/10/28 02:06:09;;;;;;;;;;;;;;;5.20;89.85;97406.50;30001;983;1867;-61
2021/10/28 02:06:40;;;;;;;;;;;;;;;5.19;89.53;97402.22;30001;983;1880;-61
2021/10/28 02:07:11;;;;;;;;;;;;;;;5.19;89.62;97410.28;30001;983;1876;-61
2021/10/28 02:07:43;;;;;;;;;;;;;;;5.18;89.49;97403.28;30001;984;1871;-60
2021/10/28 02:08:14;;;;;;;;;;;;;;;5.18;89.61;97405.97;30001;982;1880;-61
2021/10/28 02:08:45;;;;;;;;;;;;;;;5.16;89.31;97405.41;30001;982;1876;-60
2021/10/28 02:09:16;;;;;;;;;;;;;;;5.15;89.59;97402.97;30001;982;1868;-61
2021/10/28 02:09:47;;;;;;;;;;;;;;;5.14;89.70;97396.75;30001;982;1868;-60
2021/10/28 02:10:19;;;;;;;;;;;;;;;5.20;89.19;97394.97;30001;983;1880;-61
2021/10/28 02:10:51;;;;;;;;;;;;;;;5.21;89.05;97396.56;30001;986;1876;-61
2021/10/28 02:11:22;;;;;;;;;;;;;;;5.21;88.99;97402.75;30001;983;1880;-61
2021/10/28 02:11:52;;;;;;;;;;;;;;;5.22;88.82;97406.25;30001;983;1863;-60
2021/10/28 02:12:24;;;;;;;;;;;;;;;5.20;88.65;97406.50;30001;983;1871;-61
2021/10/28 02:12:56;;;;;;;;;;;;;;;5.18;88.84;97407.84;30001;983;1876;-60
2021/10/28 02:13:27;;;;;;;;;;;;;;;5.14;89.15;97399.44;30001;983;1880;-61
2021/10/28 02:13:58;;;;;;;;;;;;;;;5.14;89.06;97396.75;30001;983;1876;-61
2021/10/28 02:14:30;;;;;;;;;;;;;;;5.13;88.97;97400.50;30001;983;1881;-61
2021/10/28 02:15:02;;;;;;;;;;;;;;;5.11;89.24;97399.94;30001;983;1877;-60
2021/10/28 02:15:33;;;;;;;;;;;;;;;5.09;89.50;97399.38;30001;982;1868;-60
2021/10/28 02:16:06;;;;;;;;;;;;;;;5.07;89.30;97398.78;30001;982;1868;-60
2021/10/28 02:16:37;;;;;;;;;;;;;;;5.05;89.76;97390.97;30001;982;1881;-60
2021/10/28 02:17:08;;;;;;;;;;;;;;;5.06;89.59;97399.84;30001;982;1863;-61
2021/10/28 02:17:39;;;;;;;;;;;;;;;5.03;89.55;97395.78;30001;983;1871;-60
2021/10/28 02:18:10;;;;;;;;;;;;;;;5.02;89.70;97393.34;30001;983;1875;-61
2021/10/28 02:18:41;;;;;;;;;;;;;;;4.98;90.01;97389.50;30001;983;1880;-59
2021/10/28 02:19:12;;;;;;;;;;;;;;;4.97;89.94;97394.06;30001;983;1876;-59
2021/10/28 02:19:44;;;;;;;;;;;;;;;4.97;90.27;97391.38;30001;983;1867;-61
2021/10/28 02:20:17;;;;;;;;;;;;;;;4.98;90.24;97392.19;30001;983;1867;-61
2021/10/28 02:20:48;;;;;;;;;;;;;;;4.98;90.61;97395.69;30001;983;1880;-59
2021/10/28 02:21:19;;;;;;;;;;;;;;;4.99;90.69;97393.81;30001;983;1876;-59
2021/10/28 02:21:49;;;;;;;;;;;;;;;4.98;90.72;97386.81;30001;983;1880;-59
2021/10/28 02:22:20;;;;;;;;;;;;;;;5.02;90.71;97393.34;30001;983;1877;-60
2021/10/28 02:22:51;;;;;;;;;;;;;;;5.08;90.88;97395.03;30001;970;1893;-60
2021/10/28 02:23:22;;;;;;;;;;;;;;;5.06;90.66;97389.09;30001;982;1876;-59
2021/10/28 02:23:53;;;;;;;;;;;;;;;5.12;90.73;97388.13;30001;982;1881;-60
2021/10/28 02:24:24;;;;;;;;;;;;;;;5.12;90.56;97395.37;30001;982;1877;-60
2021/10/28 02:24:55;;;;;;;;;;;;;;;5.10;90.54;97390.22;30001;982;1868;-60
2021/10/28 02:25:26;;;;;;;;;;;;;;;5.11;90.65;97391.06;30001;983;1867;-60
2021/10/28 02:25:57;;;;;;;;;;;;;;;5.10;90.82;97389.41;30001;983;1880;-60
2021/10/28 02:26:28;;;;;;;;;;;;;;;5.13;90.69;97392.44;30001;983;1876;-58
2021/10/28 02:26:59;;;;;;;;;;;;;;;5.13;90.47;97388.94;30001;985;1867;-58
2021/10/28 02:27:30;;;;;;;;;;;;;;;5.14;90.45;97391.38;30001;983;1867;-60
2021/10/28 02:28:01;;;;;;;;;;;;;;;5.15;90.71;97395.69;30001;983;1880;-61
2021/10/28 02:28:32;;;;;;;;;;;;;;;5.12;90.43;97396.19;30001;983;1876;-60
2021/10/28 02:29:03;;;;;;;;;;;;;;;5.11;90.61;97397.25;30001;983;1881;-60
2021/10/28 02:29:34;;;;;;;;;;;;;;;5.10;90.78;97395.63;30001;983;1876;-59
2021/10/28 02:30:06;;;;;;;;;;;;;;;5.09;90.99;97391.28;30001;983;1881;-60
2021/10/28 02:30:38;;;;;;;;;;;;;;;5.09;90.92;97402.06;30001;982;1863;-61
2021/10/28 02:31:09;;;;;;;;;;;;;;;5.14;90.91;97394.06;30001;982;1872;-59
2021/10/28 02:31:43;;;;;;;;;;;;;;;5.14;90.51;97395.94;30001;982;1877;-60
2021/10/28 02:32:15;;;;;;;;;;;;;;;5.15;90.51;97401.09;30001;982;1868;-61
2021/10/28 02:32:46;;;;;;;;;;;;;;;5.14;90.46;97396.75;30001;983;1854;-61
2021/10/28 02:33:17;;;;;;;;;;;;;;;5.14;90.62;97393.25;30001;983;1880;-60
2021/10/28 02:33:47;;;;;;;;;;;;;;;5.15;90.30;97401.09;30001;983;1876;-62
2021/10/28 02:34:18;;;;;;;;;;;;;;;5.14;90.57;97396.75;30001;983;1880;-60
2021/10/28 02:34:50;;;;;;;;;;;;;;;5.14;90.41;97388.69;30001;983;1876;-62
2021/10/28 02:35:21;;;;;;;;;;;;;;;5.12;90.54;97398.88;30001;983;1880;-61
2021/10/28 02:35:51;;;;;;;;;;;;;;;5.13;90.58;97403.19;30001;983;1863;-61
2021/10/28 02:36:22;;;;;;;;;;;;;;;5.12;90.60;97398.06;30001;983;1872;-61
2021/10/28 02:36:53;;;;;;;;;;;;;;;5.12;90.61;97398.88;30001;983;1863;-60
2021/10/28 02:37:24;;;;;;;;;;;;;;;5.10;90.35;97403.69;30001;982;1859;-60
2021/10/28 02:37:55;;;;;;;;;;;;;;;5.09;90.38;97398.53;30001;982;1863;-61
2021/10/28 02:38:26;;;;;;;;;;;;;;;5.07;90.36;97397.97;30001;982;1859;-61
2021/10/28 02:38:56;;;;;;;;;;;;;;;5.06;90.12;97399.84;30001;982;1877;-62
2021/10/28 02:39:28;;;;;;;;;;;;;;;5.06;90.32;97394.47;30001;982;1881;-61
2021/10/28 02:39:59;;;;;;;;;;;;;;;5.05;90.19;97393.66;30001;982;1877;-61
2021/10/28 02:40:30;;;;;;;;;;;;;;;5.05;90.21;97395.53;30001;983;1880;-60
2021/10/28 02:41:01;;;;;;;;;;;;;;;5.05;90.25;97396.34;30001;983;1876;-61
2021/10/28 02:41:31;;;;;;;;;;;;;;;5.04;90.35;97391.22;30001;983;1880;-59
2021/10/28 02:42:03;;;;;;;;;;;;;;;5.04;90.29;97391.22;30001;983;1876;-61
2021/10/28 02:42:34;;;;;;;;;;;;;;;5.03;90.46;97398.47;30001;983;1880;-60
2021/10/28 02:43:05;;;;;;;;;;;;;;;5.03;90.40;97394.97;30001;983;1863;-60
2021/10/28 02:43:36;;;;;;;;;;;;;;;5.02;90.15;97393.34;30001;983;1872;-61
2021/10/28 02:44:07;;;;;;;;;;;;;;;5.03;90.30;97401.16;30001;983;1876;-60
2021/10/28 02:44:38;;;;;;;;;;;;;;;5.03;90.59;97393.09;30001;982;1868;-62
2021/10/28 02:45:09;;;;;;;;;;;;;;;5.05;90.45;97398.22;30001;982;1868;-61
2021/10/28 02:45:41;;;;;;;;;;;;;;;5.06;90.17;97389.09;30001;982;1881;-61
2021/10/28 02:46:11;;;;;;;;;;;;;;;5.07;90.30;97395.28;30001;982;1877;-62
2021/10/28 02:46:42;;;;;;;;;;;;;;;5.07;90.00;97385.34;30001;982;1881;-62
2021/10/28 02:47:14;;;;;;;;;;;;;;;5.06;89.98;97389.09;30001;982;1877;-61
2021/10/28 02:47:45;;;;;;;;;;;;;;;5.04;90.12;97389.34;30001;982;1868;-60
2021/10/28 02:48:15;;;;;;;;;;;;;;;5.03;89.99;97389.59;30001;983;1867;-62
2021/10/28 02:48:46;;;;;;;;;;;;;;;5.03;90.27;97394.97;30001;983;1880;-62
2021/10/28 02:49:17;;;;;;;;;;;;;;;5.02;90.06;97393.34;30001;983;1876;-62
2021/10/28 02:49:48;;;;;;;;;;;;;;;5.01;90.22;97391.69;30001;983;1880;-61
2021/10/28 02:50:20;;;;;;;;;;;;;;;5.02;90.32;97390.62;30001;983;1876;-59
2021/10/28 02:50:54;;;;;;;;;;;;;;;5.03;89.88;97393.09;30001;983;1880;-60
2021/10/28 02:51:25;;;;;;;;;;;;;;;5.04;89.76;97389.34;30001;983;1876;-61
2021/10/28 02:51:55;;;;;;;;;;;;;;;5.02;89.80;97387.94;30001;983;1881;-62
2021/10/28 02:52:26;;;;;;;;;;;;;;;5.02;89.84;97387.94;30001;982;1876;-60
2021/10/28 02:52:57;;;;;;;;;;;;;;;5.01;89.76;97392.50;30001;982;1868;-61
2021/10/28 02:53:28;;;;;;;;;;;;;;;5.03;89.81;97392.28;30001;982;1868;-61
2021/10/28 02:53:59;;;;;;;;;;;;;;;5.04;89.89;97396.59;30001;982;1881;-61
2021/10/28 02:54:30;;;;;;;;;;;;;;;5.02;89.51;97390.62;30001;982;1877;-61
2021/10/28 02:55:03;;;;;;;;;;;;;;;5.02;89.47;97390.62;30001;982;1881;-62
2021/10/28 02:55:35;;;;;;;;;;;;;;;5.00;89.38;97395.44;30001;981;1890;-60
2021/10/28 02:56:06;;;;;;;;;;;;;;;4.97;89.67;97388.69;30001;983;1867;-61
2021/10/28 02:56:37;;;;;;;;;;;;;;;4.96;89.42;97397.00;30001;983;1867;-62
2021/10/28 02:57:08;;;;;;;;;;;;;;;4.95;89.76;97387.28;30001;983;1880;-61
2021/10/28 02:57:40;;;;;;;;;;;;;;;4.95;89.89;97392.69;30001;983;1876;-60
2021/10/28 02:58:11;;;;;;;;;;;;;;;4.96;89.60;97391.63;30001;983;1880;-61
2021/10/28 02:58:42;;;;;;;;;;;;;;;4.96;89.86;97383.53;30001;983;1876;-61
2021/10/28 02:59:14;;;;;;;;;;;;;;;4.97;89.70;97387.88;30001;983;1881;-62
2021/10/28 02:59:45;;;;;;;;;;;;;;;4.96;89.33;97391.63;30001;984;1788;-62
2021/10/28 03:00:15;;;;;;;;;;;;;;;4.95;89.45;97390.81;30001;982;1881;-61
2021/10/28 03:00:47;;;;;;;;;;;;;;;4.99;89.55;97383.06;30001;982;1863;-57
2021/10/28 03:01:18;;;;;;;;;;;;;;;4.98;89.69;97381.44;30001;982;1872;-60
2021/10/28 03:01:50;;;;;;;;;;;;;;;4.97;89.75;97382.50;30001;982;1863;-57
2021/10/28 03:02:22;;;;;;;;;;;;;;;4.99;89.54;97388.44;30001;983;1871;-59
2021/10/28 03:02:53;;;;;;;;;;;;;;;4.98;89.59;97386.81;30001;983;1876;-60
2021/10/28 03:03:24;;;;;;;;;;;;;;;5.00;89.46;97384.69;30001;983;1880;-60
2021/10/28 03:03:55;;;;;;;;;;;;;;;5.01;89.59;97383.62;30001;983;1876;-60
2021/10/28 03:04:26;;;;;;;;;;;;;;;4.97;89.31;97379.78;30001;983;1880;-60